createdAt,value
2023-05-03T00:01:44.364Z,3.10
2023-05-03T00:04:11.688Z,3.53
2023-05-03T00:06:38.907Z,4.07
2023-05-03T00:09:06.091Z,3.15
2023-05-03T00:11:34.213Z,3.00
2023-05-03T00:14:01.349Z,3.38
2023-05-03T00:16:28.450Z,2.83
2023-05-03T00:18:55.347Z,3.85
2023-05-03T00:21:22.900Z,4.03
2023-05-03T00:23:50.063Z,3.57
2023-05-03T00:26:17.047Z,3.67
2023-05-03T00:28:44.108Z,4.13
2023-05-03T00:31:11.430Z,3.90
2023-05-03T00:33:39.054Z,4.28
2023-05-03T00:36:15.743Z,4.40
2023-05-03T00:38:43.271Z,4.28
2023-05-03T00:41:11.162Z,4.60
2023-05-03T00:43:38.268Z,4.32
2023-05-03T00:46:16.185Z,3.47
2023-05-03T00:48:49.619Z,3.78
2023-05-03T00:51:17.087Z,3.67
2023-05-03T00:53:44.658Z,3.33
2023-05-03T00:56:12.247Z,4.43
2023-05-03T00:58:40.705Z,4.13
2023-05-03T01:01:08.890Z,4.25
2023-05-03T01:03:41.952Z,5.35
2023-05-03T01:07:05.213Z,3.78
2023-05-03T01:09:46.181Z,4.10
2023-05-03T01:12:24.994Z,4.07
2023-05-03T01:15:25.919Z,4.15
2023-05-03T01:18:05.225Z,3.90
2023-05-03T01:20:38.129Z,4.18
2023-05-03T01:23:15.700Z,5.22
2023-05-03T01:25:42.794Z,4.43
2023-05-03T01:28:09.773Z,4.03
2023-05-03T01:30:38.652Z,4.22
2023-05-03T01:33:45.076Z,4.50
2023-05-03T01:36:18.197Z,4.38
2023-05-03T01:38:45.607Z,4.90
2023-05-03T01:41:14.353Z,3.72
2023-05-03T01:43:44.165Z,3.70
2023-05-03T01:46:11.415Z,4.15
2023-05-03T01:48:38.491Z,4.47
2023-05-03T01:51:05.960Z,4.22
2023-05-03T01:53:33.299Z,4.60
2023-05-03T01:56:00.583Z,4.63
2023-05-03T01:58:27.555Z,5.03
2023-05-03T02:00:54.965Z,4.97
2023-05-03T02:03:22.666Z,5.20
2023-05-03T02:05:49.886Z,5.68
2023-05-03T02:08:16.919Z,5.95
2023-05-03T02:10:44.969Z,5.38
2023-05-03T02:13:11.912Z,5.40
2023-05-03T02:15:39.004Z,5.20
2023-05-03T02:18:06.151Z,5.30
2023-05-03T02:20:37.810Z,5.97
2023-05-03T02:23:05.273Z,5.22
2023-05-03T02:25:32.354Z,5.57
2023-05-03T02:27:59.342Z,5.03
2023-05-03T02:30:26.302Z,5.28
2023-05-03T02:32:53.320Z,5.40
2023-05-03T02:35:21.129Z,5.90
2023-05-03T02:37:48.230Z,5.72
2023-05-03T02:40:16.246Z,5.55
2023-05-03T02:42:46.494Z,6.03
2023-05-03T02:45:16.946Z,5.68
2023-05-03T02:47:44.344Z,6.13
2023-05-03T02:50:11.713Z,5.03
2023-05-03T02:52:40.934Z,5.57
2023-05-03T02:55:08.609Z,4.95
2023-05-03T02:57:36.612Z,5.13
2023-05-03T03:00:06.725Z,4.88
2023-05-03T03:02:34.192Z,5.57
2023-05-03T03:05:01.480Z,5.90
2023-05-03T03:07:29.043Z,5.72
2023-05-03T03:09:57.740Z,5.93
2023-05-03T03:12:26.306Z,6.00
2023-05-03T03:14:55.230Z,6.03
2023-05-03T03:17:22.828Z,6.82
2023-05-03T03:19:50.040Z,6.68
2023-05-03T03:22:17.606Z,7.25
2023-05-03T03:24:47.118Z,6.60
2023-05-03T03:27:14.151Z,6.30
2023-05-03T03:29:41.331Z,6.35
2023-05-03T03:32:11.779Z,5.93
2023-05-03T03:34:38.835Z,6.75
2023-05-03T03:37:06.138Z,7.07
2023-05-03T03:39:33.849Z,6.97
2023-05-03T03:42:03.061Z,8.52
2023-05-03T03:44:30.896Z,7.45
2023-05-03T03:46:58.103Z,7.15
2023-05-03T03:49:25.756Z,7.72
2023-05-03T03:51:52.795Z,7.28
2023-05-03T03:54:19.891Z,7.68
2023-05-03T03:56:51.122Z,7.75
2023-05-03T03:59:18.947Z,7.40
2023-05-03T04:01:47.137Z,8.02
2023-05-03T04:04:14.316Z,7.20
2023-05-03T04:06:41.530Z,7.45
2023-05-03T04:09:12.391Z,7.60
2023-05-03T04:11:39.534Z,7.10
2023-05-03T04:14:07.874Z,7.10
2023-05-03T04:16:35.259Z,6.63
2023-05-03T04:19:06.968Z,7.15
2023-05-03T04:21:38.300Z,7.28
2023-05-03T04:24:07.627Z,7.72
2023-05-03T04:26:35.322Z,7.57
2023-05-03T04:29:14.668Z,8.05
2023-05-03T04:31:44.233Z,8.15
2023-05-03T04:34:15.072Z,6.80
2023-05-03T04:36:46.453Z,7.60
2023-05-03T04:39:15.401Z,7.68
2023-05-03T04:41:44.392Z,7.90
2023-05-03T04:44:11.876Z,7.97
2023-05-03T04:46:39.761Z,8.10
2023-05-03T04:49:07.858Z,8.20
2023-05-03T04:51:34.994Z,7.85
2023-05-03T04:54:02.734Z,8.07
2023-05-03T04:56:30.248Z,8.45
2023-05-03T04:59:08.688Z,8.25
2023-05-03T05:01:36.758Z,9.40
2023-05-03T05:04:05.728Z,9.05
2023-05-03T05:06:39.531Z,10.95
2023-05-03T05:09:07.692Z,9.05
2023-05-03T05:11:35.510Z,8.93
2023-05-03T05:14:03.574Z,8.60
2023-05-03T05:16:30.705Z,9.57
2023-05-03T05:18:58.404Z,10.50
2023-05-03T05:21:28.644Z,10.23
2023-05-03T05:23:56.872Z,9.25
2023-05-03T05:26:24.100Z,8.40
2023-05-03T05:28:51.625Z,8.73
2023-05-03T05:31:18.919Z,8.80
2023-05-03T05:33:46.695Z,8.52
2023-05-03T05:36:14.645Z,8.93
2023-05-03T05:38:42.780Z,8.20
2023-05-03T05:41:10.125Z,8.27
2023-05-03T05:43:39.046Z,8.38
2023-05-03T05:46:06.567Z,7.57
2023-05-03T05:48:33.615Z,7.63
2023-05-03T05:51:01.916Z,8.20
2023-05-03T05:53:29.426Z,7.10
2023-05-03T05:56:00.396Z,6.93
2023-05-03T05:58:29.017Z,5.78
2023-05-03T06:01:01.381Z,6.82
2023-05-03T06:03:31.821Z,5.45
2023-05-03T06:06:01.503Z,5.22
2023-05-03T06:08:28.792Z,5.10
2023-05-03T06:10:55.913Z,5.18
2023-05-03T06:13:25.013Z,5.13
2023-05-03T06:15:52.229Z,5.32
2023-05-03T06:18:20.023Z,4.38
2023-05-03T06:20:50.649Z,3.67
2023-05-03T06:23:18.929Z,2.97
2023-05-03T06:25:47.700Z,3.92
2023-05-03T06:28:16.561Z,2.78
2023-05-03T06:30:51.711Z,2.83
2023-05-03T06:33:18.917Z,1.13
2023-05-03T06:35:48.472Z,0.95
2023-05-03T06:38:18.491Z,1.20
2023-05-03T06:40:46.967Z,1.80
2023-05-03T06:43:14.465Z,1.80
2023-05-03T06:45:52.938Z,1.10
2023-05-03T06:48:21.572Z,1.02
2023-05-03T06:50:49.000Z,0.82
2023-05-03T06:53:16.384Z,0.80
2023-05-03T06:55:45.707Z,0.90
2023-05-03T06:58:12.778Z,1.10
2023-05-03T07:00:39.804Z,0.93
2023-05-03T07:03:07.125Z,0.80
2023-05-03T07:05:34.639Z,0.70
2023-05-03T07:08:01.757Z,1.20
2023-05-03T07:10:31.336Z,0.90
2023-05-03T07:12:58.797Z,0.93
2023-05-03T07:15:25.891Z,0.90
2023-05-03T07:17:52.940Z,1.20
2023-05-03T07:20:21.805Z,0.82
2023-05-03T07:22:49.350Z,1.20
2023-05-03T07:25:18.052Z,1.23
2023-05-03T07:27:45.495Z,1.00
2023-05-03T07:30:13.008Z,1.20
2023-05-03T07:32:40.209Z,1.05
2023-05-03T07:35:07.961Z,1.30
2023-05-03T07:37:34.974Z,1.00
2023-05-03T07:40:02.234Z,1.23
2023-05-03T07:42:29.788Z,1.60
2023-05-03T07:44:56.899Z,1.38
2023-05-03T07:47:24.951Z,1.00
2023-05-03T07:49:52.309Z,1.08
2023-05-03T07:52:19.420Z,0.80
2023-05-03T07:54:46.902Z,1.02
2023-05-03T07:57:16.298Z,1.30
2023-05-03T07:59:43.620Z,1.30
2023-05-03T08:02:10.758Z,1.15
2023-05-03T08:04:38.097Z,0.90
2023-05-03T08:07:05.267Z,1.20
2023-05-03T08:09:32.252Z,1.55
2023-05-03T08:11:59.284Z,1.30
2023-05-03T08:14:28.098Z,1.40
2023-05-03T08:16:55.590Z,1.85
2023-05-03T08:19:22.709Z,1.75
2023-05-03T08:21:50.069Z,1.83
2023-05-03T08:24:17.107Z,1.60
2023-05-03T08:26:45.464Z,2.25
2023-05-03T08:29:12.544Z,1.60
2023-05-03T08:31:39.872Z,2.40
2023-05-03T08:34:08.110Z,2.25
2023-05-03T08:36:35.779Z,2.30
2023-05-03T08:39:06.646Z,1.90
2023-05-03T08:41:34.222Z,3.05
2023-05-03T08:44:04.163Z,3.00
2023-05-03T08:46:31.680Z,3.55
2023-05-03T08:49:00.230Z,4.28
2023-05-03T08:51:28.255Z,3.85
2023-05-03T08:53:55.410Z,3.88
2023-05-03T08:56:42.428Z,3.88
2023-05-03T08:59:11.753Z,3.80
2023-05-03T09:01:41.438Z,3.20
2023-05-03T09:04:10.626Z,3.30
2023-05-03T09:06:39.095Z,2.75
2023-05-03T09:09:08.703Z,3.50
2023-05-03T09:11:38.680Z,2.92
2023-05-03T09:14:17.564Z,3.00
2023-05-03T09:16:46.780Z,4.05
2023-05-03T09:19:15.997Z,3.60
2023-05-03T09:21:47.405Z,3.70
2023-05-03T09:24:20.086Z,3.75
2023-05-03T09:26:51.133Z,3.15
2023-05-03T09:29:34.185Z,4.72
2023-05-03T09:32:08.638Z,4.68
2023-05-03T09:34:37.211Z,5.50
2023-05-03T09:37:04.588Z,4.70
2023-05-03T09:39:31.765Z,4.10
2023-05-03T09:41:59.202Z,3.97
2023-05-03T09:44:42.062Z,4.57
2023-05-03T09:47:10.418Z,4.50
2023-05-03T09:49:38.616Z,4.60
2023-05-03T09:52:07.826Z,4.47
2023-05-03T09:54:35.654Z,4.60
2023-05-03T09:57:05.760Z,4.78
2023-05-03T09:59:34.447Z,5.40
2023-05-03T10:02:04.944Z,4.70
2023-05-03T10:04:52.363Z,4.75
2023-05-03T10:07:21.839Z,4.38
2023-05-03T10:09:48.860Z,4.50
2023-05-03T10:12:17.753Z,2.45
2023-05-03T10:14:48.753Z,2.53
2023-05-03T10:17:46.982Z,4.03
2023-05-03T10:20:29.073Z,3.00
2023-05-03T10:23:05.750Z,4.18
2023-05-03T10:25:35.974Z,1.58
2023-05-03T10:28:07.510Z,2.60
2023-05-03T10:30:40.913Z,2.42
2023-05-03T10:33:14.315Z,1.48
2023-05-03T10:35:52.530Z,0.77
2023-05-03T10:38:25.577Z,1.10
2023-05-03T10:40:55.226Z,2.50
2023-05-03T10:43:31.613Z,1.70
2023-05-03T10:46:03.435Z,2.45
2023-05-03T10:48:31.807Z,2.42
2023-05-03T10:51:33.691Z,2.92
2023-05-03T10:54:00.863Z,4.32
2023-05-03T10:56:28.186Z,3.72
2023-05-03T10:58:59.013Z,4.30
2023-05-03T11:01:27.612Z,4.15
2023-05-03T11:03:58.673Z,3.85
2023-05-03T11:06:34.330Z,3.75
2023-05-03T11:09:06.895Z,4.15
2023-05-03T11:11:37.694Z,4.00
2023-05-03T11:14:05.789Z,3.03
2023-05-03T11:16:33.032Z,2.80
2023-05-03T11:19:01.485Z,1.48
2023-05-03T11:21:29.558Z,2.78
2023-05-03T11:23:59.539Z,3.10
2023-05-03T11:26:27.613Z,4.70
2023-05-03T11:28:55.038Z,3.53
2023-05-03T11:31:22.952Z,3.60
2023-05-03T11:33:51.252Z,2.45
2023-05-03T11:36:18.429Z,1.30
2023-05-03T11:38:45.653Z,1.70
2023-05-03T11:41:16.712Z,1.60
2023-05-03T11:43:46.237Z,1.92
2023-05-03T11:46:23.230Z,1.92
2023-05-03T11:48:50.453Z,2.53
2023-05-03T11:51:23.839Z,2.65
2023-05-03T11:53:52.030Z,1.90
2023-05-03T11:56:21.072Z,1.33
2023-05-03T11:58:59.595Z,1.30
2023-05-03T12:01:29.014Z,2.13
2023-05-03T12:03:59.861Z,3.10
2023-05-03T12:06:29.061Z,2.33
2023-05-03T12:08:56.824Z,1.58
2023-05-03T12:11:27.353Z,2.60
2023-05-03T12:14:03.240Z,2.45
2023-05-03T12:16:52.227Z,0.20
2023-05-03T12:19:31.736Z,0.00
2023-05-03T12:27:02.590Z,0.10
2023-05-03T12:29:34.508Z,0.10
2023-05-03T12:32:03.708Z,0.10
2023-05-03T12:34:34.969Z,0.30
2023-05-03T12:37:06.086Z,0.38
2023-05-03T12:39:34.479Z,0.30
2023-05-03T12:42:08.115Z,0.20
2023-05-03T12:44:36.604Z,0.10
2023-05-03T12:47:04.670Z,0.10
2023-05-03T12:49:32.453Z,0.10
2023-05-03T12:52:34.778Z,0.20
2023-05-03T12:54:49.529Z,0.20
2023-05-03T12:57:23.408Z,0.20
2023-05-03T13:00:02.279Z,0.80
2023-05-03T13:05:09.401Z,0.20
2023-05-03T13:07:43.157Z,0.40
2023-05-03T13:12:41.649Z,0.10
2023-05-03T13:15:14.433Z,0.10
2023-05-03T13:17:41.612Z,0.20
2023-05-03T13:20:10.872Z,0.10
2023-05-03T13:22:39.427Z,0.10
2023-05-03T13:25:08.381Z,0.35
2023-05-03T13:27:37.049Z,0.00
2023-05-03T13:30:05.917Z,0.00
2023-05-03T13:32:33.474Z,0.10
2023-05-03T13:35:00.697Z,0.25
2023-05-03T13:37:27.720Z,0.10
2023-05-03T13:39:55.997Z,0.10
2023-05-03T13:42:23.117Z,0.10
2023-05-03T13:44:51.248Z,0.28
2023-05-03T13:47:18.562Z,0.10
2023-05-03T13:49:45.660Z,0.10
2023-05-03T13:52:12.686Z,0.65
2023-05-03T13:54:40.442Z,0.30
2023-05-03T13:57:07.929Z,0.10
2023-05-03T13:59:34.935Z,0.10
2023-05-03T14:02:03.226Z,0.00
2023-05-03T14:04:31.831Z,0.00
2023-05-03T14:07:02.889Z,0.00
2023-05-03T14:09:30.865Z,0.10
2023-05-03T14:11:57.967Z,0.10
2023-05-03T14:14:29.140Z,0.10
2023-05-03T14:16:56.271Z,0.10
2023-05-03T14:19:23.446Z,0.10
2023-05-03T14:21:51.543Z,0.10
2023-05-03T14:24:19.802Z,0.10
2023-05-03T14:26:46.853Z,0.00
2023-05-03T14:29:13.944Z,0.10
2023-05-03T14:31:41.134Z,0.10
2023-05-03T14:34:09.378Z,0.10
2023-05-03T14:36:38.763Z,0.00
2023-05-03T14:39:06.201Z,0.10
2023-05-03T14:41:34.228Z,0.03
2023-05-03T14:44:02.186Z,0.10
2023-05-03T14:46:29.349Z,0.10
2023-05-03T14:48:57.769Z,0.08
2023-05-03T14:51:24.844Z,0.00
2023-05-03T14:53:52.694Z,0.10
2023-05-03T14:56:19.645Z,0.00
2023-05-03T14:58:46.658Z,0.00
2023-05-03T15:01:21.629Z,0.20
2023-05-03T15:03:48.969Z,0.10
2023-05-03T15:06:33.155Z,0.10
2023-05-03T15:09:00.476Z,0.20
2023-05-03T15:11:27.876Z,0.10
2023-05-03T15:13:55.318Z,0.10
2023-05-03T15:16:22.588Z,0.10
2023-05-03T15:18:50.019Z,0.20
2023-05-03T15:21:20.019Z,0.30
2023-05-03T15:23:49.882Z,0.50
2023-05-03T15:26:22.764Z,0.20
2023-05-03T15:28:50.469Z,0.05
2023-05-03T15:31:17.899Z,0.03
2023-05-03T15:33:45.098Z,0.00
2023-05-03T15:36:13.734Z,0.30
2023-05-03T15:38:41.112Z,0.10
2023-05-03T15:41:09.071Z,0.10
2023-05-03T15:43:37.664Z,0.00
2023-05-03T15:46:05.697Z,0.00
2023-05-03T15:48:33.363Z,0.00
2023-05-03T15:51:00.423Z,0.10
2023-05-03T15:53:28.060Z,0.10
2023-05-03T15:55:58.858Z,0.20
2023-05-03T15:58:29.085Z,0.10
2023-05-03T16:01:00.062Z,0.10
2023-05-03T16:03:27.272Z,0.05
2023-05-03T16:05:56.443Z,0.03
2023-05-03T16:08:23.856Z,0.03
2023-05-03T16:10:51.392Z,0.10
2023-05-03T16:13:18.768Z,0.10
2023-05-03T16:15:46.266Z,0.10
2023-05-03T16:18:13.588Z,0.30
2023-05-03T16:20:41.355Z,0.10
2023-05-03T16:23:09.294Z,0.10
2023-05-03T16:25:36.654Z,0.00
2023-05-03T16:28:04.183Z,0.30
2023-05-03T16:30:31.414Z,0.30
2023-05-03T16:32:58.474Z,0.30
2023-05-03T16:35:25.573Z,0.20
2023-05-03T16:37:53.154Z,0.10
2023-05-03T16:40:22.978Z,0.10
2023-05-03T16:42:50.874Z,0.10
2023-05-03T16:45:19.729Z,0.10
2023-05-03T16:47:47.905Z,0.10
2023-05-03T16:50:17.547Z,0.10
2023-05-03T16:52:45.037Z,0.00
2023-05-03T16:55:13.298Z,0.00
2023-05-03T16:57:40.580Z,0.20
2023-05-03T17:00:09.701Z,0.10
2023-05-03T17:02:40.199Z,0.30
2023-05-03T17:05:08.659Z,0.10
2023-05-03T17:07:36.005Z,0.10
2023-05-03T17:10:06.312Z,0.00
2023-05-03T17:12:34.905Z,0.10
2023-05-03T17:15:02.174Z,0.00
2023-05-03T17:17:32.332Z,0.10
2023-05-03T17:19:59.743Z,0.20
2023-05-03T17:22:28.151Z,0.20
2023-05-03T17:25:01.474Z,0.10
2023-05-03T17:27:28.530Z,0.20
2023-05-03T17:29:59.359Z,0.10
2023-05-03T17:32:26.963Z,0.10
2023-05-03T17:34:54.781Z,0.10
2023-05-03T17:37:24.020Z,0.10
2023-05-03T17:39:51.318Z,0.08
2023-05-03T17:42:19.383Z,0.10
2023-05-03T17:44:46.909Z,0.10
2023-05-03T17:47:15.278Z,0.15
2023-05-03T17:49:42.316Z,0.10
2023-05-03T17:52:09.512Z,0.10
2023-05-03T17:54:36.689Z,0.10
2023-05-03T17:57:03.828Z,0.10
2023-05-03T17:59:30.885Z,0.10
2023-05-03T18:01:57.962Z,0.10
2023-05-03T18:04:26.923Z,0.10
2023-05-03T18:06:54.082Z,0.10
2023-05-03T18:09:22.244Z,0.20
2023-05-03T18:11:50.763Z,0.10
2023-05-03T18:14:18.312Z,0.10
2023-05-03T18:16:45.584Z,0.10
2023-05-03T18:19:13.933Z,0.10
2023-05-03T18:21:41.362Z,0.10
2023-05-03T18:24:09.457Z,0.10
2023-05-03T18:26:38.439Z,0.10
2023-05-03T18:29:05.523Z,0.00
2023-05-03T18:31:36.644Z,0.20
2023-05-03T18:34:03.880Z,0.10
2023-05-03T18:36:31.460Z,0.10
2023-05-03T18:38:58.501Z,0.10
2023-05-03T18:41:25.575Z,0.20
2023-05-03T18:43:52.826Z,0.20
2023-05-03T18:46:20.281Z,0.13
2023-05-03T18:48:48.048Z,0.30
2023-05-03T18:51:15.220Z,0.10
2023-05-03T18:53:43.668Z,0.20
2023-05-03T18:56:11.100Z,0.20
2023-05-03T18:58:38.283Z,0.30
2023-05-03T19:01:06.116Z,0.25
2023-05-03T19:03:33.955Z,0.20
2023-05-03T19:06:12.195Z,0.30
2023-05-03T19:08:39.472Z,0.50
2023-05-03T19:11:09.174Z,0.30
2023-05-03T19:13:37.000Z,0.20
2023-05-03T19:16:04.824Z,0.43
2023-05-03T19:18:32.114Z,0.40
2023-05-03T19:21:00.042Z,0.65
2023-05-03T19:23:27.366Z,0.80
2023-05-03T19:25:54.673Z,0.85
2023-05-03T19:28:21.808Z,1.15
2023-05-03T19:30:51.665Z,1.05
2023-05-03T19:33:20.302Z,0.90
2023-05-03T19:35:48.026Z,1.30
2023-05-03T19:38:15.323Z,1.10
2023-05-03T19:40:56.898Z,1.05
2023-05-03T19:43:24.496Z,0.73
2023-05-03T19:45:52.802Z,1.00
2023-05-03T19:48:19.890Z,0.75
2023-05-03T19:50:47.672Z,2.20
2023-05-03T19:53:14.756Z,2.08
2023-05-03T19:55:41.956Z,2.58
2023-05-03T19:58:09.025Z,2.55
2023-05-03T20:00:36.115Z,2.60
2023-05-03T20:03:03.741Z,2.70
2023-05-03T20:05:31.091Z,3.85
2023-05-03T20:07:58.203Z,3.28
2023-05-03T20:10:26.662Z,2.45
2023-05-03T20:12:53.663Z,1.88
2023-05-03T20:15:20.741Z,2.53
2023-05-03T20:17:47.736Z,2.13
2023-05-03T20:20:16.453Z,3.20
2023-05-03T20:22:43.622Z,4.10
2023-05-03T20:25:10.593Z,4.40
2023-05-03T20:27:37.732Z,4.30
2023-05-03T20:30:06.398Z,4.97
2023-05-03T20:32:36.354Z,4.20
2023-05-03T20:35:05.137Z,3.88
2023-05-03T20:37:33.436Z,4.80
2023-05-03T20:40:01.001Z,4.72
2023-05-03T20:42:27.982Z,4.25
2023-05-03T20:44:55.532Z,3.92
2023-05-03T20:47:23.198Z,5.00
2023-05-03T20:49:50.408Z,4.15
2023-05-03T20:52:17.528Z,3.75
2023-05-03T20:54:45.694Z,5.07
2023-05-03T20:57:15.922Z,3.95
2023-05-03T20:59:45.983Z,3.05
2023-05-03T21:02:13.046Z,3.30
2023-05-03T21:04:40.474Z,3.40
2023-05-03T21:07:07.569Z,3.22
2023-05-03T21:09:34.645Z,3.13
2023-05-03T21:12:01.964Z,2.90
2023-05-03T21:14:29.074Z,3.10
2023-05-03T21:16:56.219Z,2.78
2023-05-03T21:19:23.478Z,2.25
2023-05-03T21:21:51.148Z,2.25
2023-05-03T21:24:18.368Z,2.00
2023-05-03T21:26:45.631Z,1.75
2023-05-03T21:29:12.715Z,1.63
2023-05-03T21:31:40.680Z,1.45
2023-05-03T21:34:07.730Z,1.83
2023-05-03T21:36:34.703Z,1.98
2023-05-03T21:39:01.739Z,1.90
2023-05-03T21:41:28.756Z,2.38
2023-05-03T21:43:56.051Z,2.17
2023-05-03T21:46:23.319Z,1.92
2023-05-03T21:48:50.713Z,2.00
2023-05-03T21:51:24.956Z,2.38
2023-05-03T21:53:53.528Z,2.08
2023-05-03T21:56:20.532Z,2.17
2023-05-03T21:58:47.878Z,2.45
2023-05-03T22:01:25.371Z,2.53
2023-05-03T22:03:53.188Z,2.58
2023-05-03T22:06:20.591Z,2.63
2023-05-03T22:08:47.807Z,2.35
2023-05-03T22:11:14.955Z,2.95
2023-05-03T22:13:58.856Z,2.30
2023-05-03T22:16:29.088Z,2.92
2023-05-03T22:18:56.328Z,2.70
2023-05-03T22:21:23.979Z,2.88
2023-05-03T22:23:51.650Z,2.22
2023-05-03T22:26:19.033Z,3.00
2023-05-03T22:28:46.245Z,2.30
2023-05-03T22:31:13.620Z,2.50
2023-05-03T22:33:41.364Z,2.88
2023-05-03T22:36:08.833Z,4.07
2023-05-03T22:38:36.026Z,3.70
2023-05-03T22:41:02.976Z,4.00
2023-05-03T22:43:29.910Z,4.78
2023-05-03T22:45:57.370Z,4.05
2023-05-03T22:48:29.719Z,3.13
2023-05-03T22:50:58.505Z,3.70
2023-05-03T22:53:25.942Z,3.25
2023-05-03T22:56:01.809Z,2.92
2023-05-03T22:58:29.299Z,3.05
2023-05-03T23:00:57.535Z,3.20
2023-05-03T23:03:25.525Z,5.60
2023-05-03T23:05:54.114Z,5.25
2023-05-03T23:08:22.322Z,6.75
2023-05-03T23:10:49.286Z,6.68
2023-05-03T23:13:16.676Z,6.35
2023-05-03T23:15:43.992Z,6.18
2023-05-03T23:18:11.060Z,4.70
2023-05-03T23:20:38.487Z,4.40
2023-05-03T23:23:05.606Z,3.80
2023-05-03T23:25:33.345Z,4.15
2023-05-03T23:28:01.072Z,3.65
2023-05-03T23:30:28.177Z,4.45
2023-05-03T23:32:55.784Z,4.05
2023-05-03T23:35:23.018Z,4.65
2023-05-03T23:37:50.086Z,3.78
2023-05-03T23:40:17.682Z,4.13
2023-05-03T23:42:46.382Z,3.85
2023-05-03T23:45:13.475Z,4.50
2023-05-03T23:47:40.539Z,5.13
2023-05-03T23:50:08.698Z,5.35
2023-05-03T23:52:35.862Z,4.63
2023-05-03T23:55:04.844Z,5.30
2023-05-03T23:57:32.115Z,5.47
2023-05-03T23:59:59.457Z,5.10
